Time;durP1;ratioP1;P1;durP2;ratioP2;P2;SDS_P1;SDS_P2;PMS_P1;PMS_P2;Temp;Humidity;BMP_temperature;BMP_pressure;BME280_temperature;BME280_humidity;BME280_pressure;Samples;Min_cycle;Max_cycle;Signal;HPM_P1;HPM_P2
2023/09/13 00:01:02;;;;;;;5.25;4.70;;;;;;;;;;4996309;28;20414;-23
2023/09/13 00:03:28;;;;;;;4.25;3.70;;;;;;;;;;4995769;28;20050;-24
2023/09/13 00:05:54;;;;;;;5.28;4.78;;;;;;;;;;4996000;28;20488;-22
2023/09/13 00:08:20;;;;;;;3.78;3.47;;;;;;;;;;4995955;28;20061;-19
2023/09/13 00:10:46;;;;;;;6.50;4.00;;;;;;;;;;4996098;28;20378;-19
2023/09/13 00:13:13;;;;;;;4.13;3.13;;;;;;;;;;4978671;28;20034;-22
2023/09/13 00:15:43;;;;;;;4.18;3.80;;;;;;;;;;4996114;28;20046;-20
2023/09/13 00:18:09;;;;;;;3.70;3.50;;;;;;;;;;4978650;28;20095;-20
2023/09/13 00:20:37;;;;;;;4.05;3.67;;;;;;;;;;4996043;28;20026;-28
2023/09/13 00:23:04;;;;;;;3.75;3.40;;;;;;;;;;4995865;28;20018;-22
2023/09/13 00:25:30;;;;;;;6.03;3.97;;;;;;;;;;4995680;28;20027;-22
2023/09/13 00:27:56;;;;;;;4.60;3.60;;;;;;;;;;4995875;28;20033;-23
2023/09/13 00:30:22;;;;;;;5.05;3.40;;;;;;;;;;4995541;28;20037;-22
2023/09/13 00:32:48;;;;;;;3.72;3.42;;;;;;;;;;4995515;28;20018;-22
2023/09/13 00:35:14;;;;;;;3.60;3.30;;;;;;;;;;4995499;28;20018;-20
2023/09/13 00:37:40;;;;;;;5.65;4.60;;;;;;;;;;4995457;28;20072;-21
2023/09/13 00:40:07;;;;;;;4.25;3.60;;;;;;;;;;4995325;28;20041;-19
2023/09/13 00:42:35;;;;;;;4.07;3.78;;;;;;;;;;4995633;28;20050;-20
2023/09/13 00:45:01;;;;;;;4.00;3.70;;;;;;;;;;4995344;28;20034;-23
2023/09/13 00:47:28;;;;;;;3.80;3.50;;;;;;;;;;4995400;28;20064;-22
2023/09/13 00:49:54;;;;;;;4.93;4.53;;;;;;;;;;4995561;28;20141;-23
2023/09/13 00:52:20;;;;;;;4.30;3.95;;;;;;;;;;4995409;28;20088;-22
2023/09/13 00:54:47;;;;;;;4.20;3.90;;;;;;;;;;4995301;28;20326;-22
2023/09/13 00:57:13;;;;;;;6.63;3.88;;;;;;;;;;4995463;28;20097;-23
2023/09/13 00:59:40;;;;;;;6.45;3.75;;;;;;;;;;4995519;28;20076;-19
2023/09/13 01:02:06;;;;;;;4.10;3.80;;;;;;;;;;4995150;28;20049;-20
2023/09/13 01:04:33;;;;;;;4.45;4.05;;;;;;;;;;4995081;28;20381;-19
2023/09/13 01:06:59;;;;;;;4.22;3.90;;;;;;;;;;4995199;28;20050;-21
2023/09/13 01:09:26;;;;;;;5.60;3.35;;;;;;;;;;4995131;28;20037;-22
2023/09/13 01:11:52;;;;;;;4.43;3.35;;;;;;;;;;4994986;28;20026;-20
2023/09/13 01:14:18;;;;;;;5.68;4.40;;;;;;;;;;4995055;28;20023;-20
2023/09/13 01:17:03;;;;;;;3.70;3.50;;;;;;;;;;4995070;28;20192;-19
2023/09/13 01:19:50;;;;;;;4.65;3.97;;;;;;;;;;4995351;28;20378;-24
2023/09/13 01:22:28;;;;;;;3.20;3.00;;;;;;;;;;4995227;28;20046;-21
2023/09/13 01:24:54;;;;;;;3.20;3.00;;;;;;;;;;4995024;28;20034;-22
2023/09/13 01:27:39;;;;;;;6.30;3.22;;;;;;;;;;4995253;28;20493;-22
2023/09/13 01:30:08;;;;;;;3.83;3.53;;;;;;;;;;4994878;28;20049;-24
2023/09/13 01:32:37;;;;;;;3.40;3.20;;;;;;;;;;4994806;28;20446;-21
2023/09/13 01:35:03;;;;;;;3.03;2.78;;;;;;;;;;4994899;28;20035;-23
2023/09/13 01:37:33;;;;;;;4.07;3.78;;;;;;;;;;4994932;28;20030;-20
2023/09/13 01:40:00;;;;;;;3.20;2.92;;;;;;;;;;4994918;28;20405;-27
2023/09/13 01:42:27;;;;;;;3.83;3.50;;;;;;;;;;4994720;28;20030;-25
2023/09/13 01:44:53;;;;;;;4.90;4.50;;;;;;;;;;4977753;28;20030;-22
2023/09/13 01:47:20;;;;;;;3.38;3.17;;;;;;;;;;4994856;28;20076;-20
2023/09/13 01:49:47;;;;;;;4.60;3.67;;;;;;;;;;4977891;28;20524;-21
2023/09/13 01:52:13;;;;;;;4.57;2.80;;;;;;;;;;4994843;28;20060;-25
2023/09/13 01:54:39;;;;;;;4.38;3.97;;;;;;;;;;4998754;28;20030;-21
2023/09/13 01:57:05;;;;;;;3.65;3.40;;;;;;;;;;4998440;28;20022;-25
2023/09/13 01:59:33;;;;;;;4.25;3.85;;;;;;;;;;4998377;28;20049;-19
2023/09/13 02:01:59;;;;;;;4.13;3.83;;;;;;;;;;4998211;28;20037;-23
2023/09/13 02:04:31;;;;;;;4.35;4.00;;;;;;;;;;4998152;28;20129;-21
2023/09/13 02:06:57;;;;;;;4.88;3.67;;;;;;;;;;4998210;28;20022;-26
2023/09/13 02:09:23;;;;;;;4.18;3.88;;;;;;;;;;4998426;28;20512;-22
2023/09/13 02:11:50;;;;;;;3.55;3.30;;;;;;;;;;4980732;28;20443;-21
2023/09/13 02:14:16;;;;;;;5.47;4.20;;;;;;;;;;4998100;28;20517;-23
2023/09/13 02:16:42;;;;;;;4.60;4.15;;;;;;;;;;4998280;28;20022;-21
2023/09/13 02:19:08;;;;;;;4.80;3.95;;;;;;;;;;4998237;28;20045;-21
2023/09/13 02:21:34;;;;;;;4.55;3.40;;;;;;;;;;4997967;28;20036;-19
2023/09/13 02:24:00;;;;;;;3.63;3.35;;;;;;;;;;4980618;28;20362;-20
2023/09/13 02:26:27;;;;;;;8.98;4.10;;;;;;;;;;4997882;28;20430;-23
2023/09/13 02:28:53;;;;;;;3.80;3.50;;;;;;;;;;4997886;28;20110;-22
2023/09/13 02:31:26;;;;;;;4.25;3.95;;;;;;;;;;4998233;28;20026;-23
2023/09/13 02:33:53;;;;;;;3.60;3.40;;;;;;;;;;4998235;28;20353;-24
2023/09/13 02:36:19;;;;;;;3.50;3.20;;;;;;;;;;4997708;28;20026;-21
2023/09/13 02:38:45;;;;;;;4.40;3.47;;;;;;;;;;4997948;28;20026;-21
2023/09/13 02:41:11;;;;;;;3.95;3.65;;;;;;;;;;4997866;28;20030;-18
2023/09/13 02:43:42;;;;;;;4.32;3.75;;;;;;;;;;4997511;28;20022;-21
2023/09/13 02:46:08;;;;;;;3.55;3.35;;;;;;;;;;4997608;28;20030;-26
2023/09/13 02:48:34;;;;;;;3.00;2.80;;;;;;;;;;4997786;28;20034;-24
2023/09/13 02:51:00;;;;;;;3.47;3.13;;;;;;;;;;4980277;28;20061;-22
2023/09/13 02:53:27;;;;;;;4.60;3.67;;;;;;;;;;4997368;28;20022;-22
2023/09/13 02:55:53;;;;;;;4.15;3.85;;;;;;;;;;4997347;28;20030;-21
2023/09/13 02:58:19;;;;;;;3.53;3.25;;;;;;;;;;4997277;28;20019;-21
2023/09/13 03:00:45;;;;;;;3.80;3.42;;;;;;;;;;4997524;28;20042;-24
2023/09/13 03:03:11;;;;;;;3.92;3.63;;;;;;;;;;4996804;28;20043;-19
2023/09/13 03:05:38;;;;;;;4.65;3.55;;;;;;;;;;4997164;28;20025;-21
2023/09/13 03:08:04;;;;;;;3.92;3.60;;;;;;;;;;4997105;28;20057;-23
2023/09/13 03:10:30;;;;;;;3.75;3.50;;;;;;;;;;4997300;28;20022;-21
2023/09/13 03:12:56;;;;;;;3.22;3.03;;;;;;;;;;4979774;28;20446;-21
2023/09/13 03:15:22;;;;;;;3.63;3.33;;;;;;;;;;4997286;28;20026;-23
2023/09/13 03:17:50;;;;;;;4.13;3.85;;;;;;;;;;4997225;28;20023;-21
2023/09/13 03:20:16;;;;;;;4.00;3.70;;;;;;;;;;4997152;28;20046;-24
2023/09/13 03:22:42;;;;;;;3.78;3.08;;;;;;;;;;4996949;28;20034;-25
2023/09/13 03:25:09;;;;;;;3.63;3.38;;;;;;;;;;4996794;28;20029;-23
2023/09/13 03:27:35;;;;;;;3.70;3.45;;;;;;;;;;4997006;28;20034;-20
2023/09/13 03:30:01;;;;;;;3.40;3.10;;;;;;;;;;4996971;28;20030;-22
2023/09/13 03:32:29;;;;;;;3.70;3.40;;;;;;;;;;4996942;28;20409;-25
2023/09/13 03:34:55;;;;;;;4.03;3.72;;;;;;;;;;4996540;28;20031;-24
2023/09/13 03:37:21;;;;;;;4.40;4.00;;;;;;;;;;4996523;28;20030;-22
2023/09/13 03:39:47;;;;;;;4.72;3.17;;;;;;;;;;4979315;28;20029;-22
2023/09/13 03:42:13;;;;;;;4.65;4.25;;;;;;;;;;4996407;28;20110;-26
2023/09/13 03:44:39;;;;;;;4.07;3.78;;;;;;;;;;4996666;28;20422;-20
2023/09/13 03:47:06;;;;;;;4.38;3.97;;;;;;;;;;4979461;28;20409;-21
2023/09/13 03:49:32;;;;;;;4.07;3.78;;;;;;;;;;4996583;28;20022;-19
2023/09/13 03:51:58;;;;;;;3.97;3.65;;;;;;;;;;4996155;28;20453;-22
2023/09/13 03:54:24;;;;;;;5.15;4.15;;;;;;;;;;4996491;28;20050;-23
2023/09/13 03:56:50;;;;;;;6.82;4.15;;;;;;;;;;4979137;28;20022;-23
2023/09/13 03:59:17;;;;;;;6.93;5.13;;;;;;;;;;4996104;28;20023;-20
2023/09/13 04:01:44;;;;;;;15.60;5.57;;;;;;;;;;4996017;28;20045;-21
2023/09/13 04:04:10;;;;;;;12.02;4.95;;;;;;;;;;4995849;28;20050;-22
2023/09/13 04:06:37;;;;;;;5.60;4.05;;;;;;;;;;4995883;28;20101;-20
2023/09/13 04:09:03;;;;;;;4.78;4.07;;;;;;;;;;4995592;28;20030;-21
2023/09/13 04:11:29;;;;;;;5.47;3.95;;;;;;;;;;4995536;28;20109;-21
2023/09/13 04:13:56;;;;;;;5.38;4.28;;;;;;;;;;4978490;28;20125;-22
2023/09/13 04:16:22;;;;;;;9.73;3.88;;;;;;;;;;4995218;28;20022;-20
2023/09/13 04:18:49;;;;;;;5.22;3.50;;;;;;;;;;4995933;28;20022;-19
2023/09/13 04:21:15;;;;;;;7.15;4.40;;;;;;;;;;4995592;28;20478;-19
2023/09/13 04:23:41;;;;;;;6.90;4.43;;;;;;;;;;4995461;28;20069;-23
2023/09/13 04:26:07;;;;;;;7.78;4.07;;;;;;;;;;4995713;28;20366;-21
2023/09/13 04:28:33;;;;;;;6.15;4.00;;;;;;;;;;4995454;28;20034;-20
2023/09/13 04:31:00;;;;;;;7.47;4.43;;;;;;;;;;4995327;28;20370;-19
2023/09/13 04:33:46;;;;;;;9.98;3.47;;;;;;;;;;4995651;28;20019;-23
2023/09/13 04:36:12;;;;;;;7.88;3.88;;;;;;;;;;4995321;28;20038;-24
2023/09/13 04:38:39;;;;;;;12.88;4.60;;;;;;;;;;4995252;28;20022;-21
2023/09/13 04:41:10;;;;;;;9.20;4.22;;;;;;;;;;4995385;28;20023;-20
2023/09/13 04:43:35;;;;;;;;;;;;;;;;;;4995676;28;20457;-21
2023/09/13 04:46:02;;;;;;;8.45;4.85;;;;;;;;;;4995399;28;19959;-21
2023/09/13 04:48:28;;;;;;;5.65;4.32;;;;;;;;;;4995391;28;20097;-23
2023/09/13 04:50:54;;;;;;;5.25;4.60;;;;;;;;;;4995174;28;20026;-22
2023/09/13 04:53:20;;;;;;;7.25;4.70;;;;;;;;;;4995053;28;20088;-25
2023/09/13 04:55:46;;;;;;;10.45;4.32;;;;;;;;;;4995097;28;20081;-22
2023/09/13 04:58:12;;;;;;;7.75;5.18;;;;;;;;;;4995155;28;20363;-21
2023/09/13 05:00:38;;;;;;;7.97;5.50;;;;;;;;;;4995272;28;20045;-19
2023/09/13 05:03:05;;;;;;;7.88;4.97;;;;;;;;;;4994803;28;20042;-20
2023/09/13 05:05:31;;;;;;;8.65;4.55;;;;;;;;;;4994975;28;20395;-24
2023/09/13 05:07:59;;;;;;;13.18;5.53;;;;;;;;;;4994944;28;20438;-25
2023/09/13 05:10:25;;;;;;;4.88;3.83;;;;;;;;;;4995049;28;20034;-24
2023/09/13 05:12:52;;;;;;;8.20;6.80;;;;;;;;;;4994904;28;20505;-22
2023/09/13 05:15:18;;;;;;;7.22;4.05;;;;;;;;;;4995094;28;20062;-22
2023/09/13 05:17:44;;;;;;;5.07;4.57;;;;;;;;;;4994813;28;20524;-21
2023/09/13 05:20:10;;;;;;;5.20;4.65;;;;;;;;;;4994799;28;20031;-21
2023/09/13 05:22:36;;;;;;;10.70;4.70;;;;;;;;;;4977385;28;20026;-21
2023/09/13 05:25:02;;;;;;;8.23;5.28;;;;;;;;;;4994737;28;20030;-20
2023/09/13 05:27:29;;;;;;;11.15;5.25;;;;;;;;;;4979956;28;20345;-25
2023/09/13 05:29:55;;;;;;;6.97;5.47;;;;;;;;;;4981448;28;20114;-24
2023/09/13 05:32:21;;;;;;;8.98;6.32;;;;;;;;;;4998409;28;20027;-21
2023/09/13 05:34:47;;;;;;;9.68;5.90;;;;;;;;;;4998814;28;20022;-23
2023/09/13 05:37:14;;;;;;;15.57;5.97;;;;;;;;;;4981366;28;20029;-22
2023/09/13 05:39:40;;;;;;;7.82;4.88;;;;;;;;;;4998557;28;20026;-22
2023/09/13 05:42:06;;;;;;;12.93;4.70;;;;;;;;;;4998504;28;20334;-23
2023/09/13 05:44:33;;;;;;;7.10;6.03;;;;;;;;;;4998623;28;20104;-24
2023/09/13 05:46:59;;;;;;;5.32;4.35;;;;;;;;;;4998827;28;20041;-21
2023/09/13 05:49:26;;;;;;;4.65;4.25;;;;;;;;;;4998725;28;20415;-21
2023/09/13 05:51:52;;;;;;;6.82;4.68;;;;;;;;;;4998149;28;20454;-22
2023/09/13 05:54:18;;;;;;;6.47;4.43;;;;;;;;;;4998433;28;20030;-19
2023/09/13 05:56:45;;;;;;;11.77;4.82;;;;;;;;;;4998627;28;20362;-21
2023/09/13 05:59:11;;;;;;;9.38;3.97;;;;;;;;;;4998274;28;20053;-22
2023/09/13 06:01:37;;;;;;;7.10;4.18;;;;;;;;;;4998080;28;20422;-24
2023/09/13 06:04:03;;;;;;;5.68;4.78;;;;;;;;;;4997869;28;20112;-23
2023/09/13 06:06:29;;;;;;;12.98;4.43;;;;;;;;;;4998403;28;20026;-22
2023/09/13 06:08:57;;;;;;;8.25;4.68;;;;;;;;;;4980912;28;20054;-23
2023/09/13 06:11:24;;;;;;;8.82;4.55;;;;;;;;;;4998257;28;20029;-23
2023/09/13 06:13:50;;;;;;;15.77;4.63;;;;;;;;;;4997984;28;20018;-21
2023/09/13 06:16:16;;;;;;;11.00;4.07;;;;;;;;;;4998100;28;20022;-24
2023/09/13 06:18:42;;;;;;;7.32;4.38;;;;;;;;;;4998031;28;20109;-23
2023/09/13 06:21:08;;;;;;;5.80;5.10;;;;;;;;;;4997993;28;20023;-22
2023/09/13 06:23:38;;;;;;;7.88;5.22;;;;;;;;;;4980668;28;20038;-21
2023/09/13 06:26:05;;;;;;;6.55;4.70;;;;;;;;;;4997841;28;20026;-26
2023/09/13 06:28:32;;;;;;;6.38;4.78;;;;;;;;;;4980569;28;20031;-25
2023/09/13 06:30:58;;;;;;;12.02;7.22;;;;;;;;;;4997718;28;20033;-21
2023/09/13 06:33:25;;;;;;;7.15;5.38;;;;;;;;;;4980512;28;20018;-24
2023/09/13 06:35:51;;;;;;;5.13;4.22;;;;;;;;;;4997982;28;20022;-21
2023/09/13 06:38:18;;;;;;;11.70;5.38;;;;;;;;;;4979837;28;20026;-23
2023/09/13 06:40:47;;;;;;;6.40;5.72;;;;;;;;;;4997533;28;20040;-23
2023/09/13 06:43:14;;;;;;;4.90;4.50;;;;;;;;;;4980242;28;20441;-19
2023/09/13 06:45:40;;;;;;;5.43;4.93;;;;;;;;;;4997600;28;20018;-23
2023/09/13 06:48:06;;;;;;;10.70;5.45;;;;;;;;;;4997389;28;20100;-19
2023/09/13 06:50:32;;;;;;;6.10;5.10;;;;;;;;;;4997278;28;20148;-22
2023/09/13 06:52:58;;;;;;;9.10;5.70;;;;;;;;;;4997109;28;20370;-21
2023/09/13 06:55:24;;;;;;;11.48;6.55;;;;;;;;;;4997449;28;20061;-21
2023/09/13 06:57:51;;;;;;;12.95;6.20;;;;;;;;;;4997472;28;20026;-21
2023/09/13 07:00:17;;;;;;;15.27;6.28;;;;;;;;;;4996888;28;20067;-20
2023/09/13 07:02:43;;;;;;;11.68;6.18;;;;;;;;;;4996418;28;20057;-23
2023/09/13 07:05:10;;;;;;;13.15;6.47;;;;;;;;;;4997217;28;20112;-22
2023/09/13 07:07:36;;;;;;;9.55;5.70;;;;;;;;;;4997045;28;20041;-26
2023/09/13 07:10:05;;;;;;;14.15;6.32;;;;;;;;;;4997371;28;20361;-21
2023/09/13 07:12:31;;;;;;;9.68;6.03;;;;;;;;;;4996738;28;20081;-21
2023/09/13 07:14:57;;;;;;;6.25;4.55;;;;;;;;;;4979436;28;20024;-20
2023/09/13 07:17:23;;;;;;;5.75;5.00;;;;;;;;;;4997167;28;20037;-20
2023/09/13 07:19:49;;;;;;;5.43;4.53;;;;;;;;;;4996451;28;20057;-20
2023/09/13 07:22:16;;;;;;;7.60;5.22;;;;;;;;;;4979348;28;20096;-21
2023/09/13 07:24:42;;;;;;;7.82;5.28;;;;;;;;;;4996816;28;20027;-21
2023/09/13 07:27:09;;;;;;;7.03;5.10;;;;;;;;;;4996496;28;20041;-21
2023/09/13 07:29:35;;;;;;;6.70;4.13;;;;;;;;;;4996615;28;20097;-20
2023/09/13 07:32:02;;;;;;;14.18;6.05;;;;;;;;;;4996526;28;20022;-22
2023/09/13 07:34:29;;;;;;;12.63;6.20;;;;;;;;;;4996878;28;20057;-22
2023/09/13 07:36:55;;;;;;;8.65;4.90;;;;;;;;;;4996590;28;20022;-21
2023/09/13 07:39:21;;;;;;;4.93;3.38;;;;;;;;;;4996459;28;20034;-22
2023/09/13 07:41:47;;;;;;;5.13;4.40;;;;;;;;;;4996077;28;20033;-20
2023/09/13 07:44:13;;;;;;;5.53;4.90;;;;;;;;;;4996306;28;20022;-21
2023/09/13 07:46:39;;;;;;;6.22;3.72;;;;;;;;;;4996139;28;20045;-21
2023/09/13 07:49:05;;;;;;;7.45;4.50;;;;;;;;;;4996218;28;20475;-20
2023/09/13 07:51:32;;;;;;;14.57;6.22;;;;;;;;;;4995073;28;20022;-24
2023/09/13 07:54:03;;;;;;;13.65;7.03;;;;;;;;;;4996077;28;20045;-20
2023/09/13 07:56:30;;;;;;;22.85;7.15;;;;;;;;;;4978947;28;20339;-22
2023/09/13 07:58:57;;;;;;;14.32;5.40;;;;;;;;;;4995897;28;20026;-25
2023/09/13 08:01:23;;;;;;;15.70;5.78;;;;;;;;;;4979311;28;20034;-20
2023/09/13 08:03:49;;;;;;;10.88;5.57;;;;;;;;;;4995578;28;20050;-23
2023/09/13 08:06:15;;;;;;;18.48;6.30;;;;;;;;;;4996096;28;20022;-22
2023/09/13 08:08:41;;;;;;;7.65;6.18;;;;;;;;;;4995880;28;20413;-24
2023/09/13 08:11:08;;;;;;;8.57;4.82;;;;;;;;;;4995629;28;20026;-23
2023/09/13 08:13:34;;;;;;;12.32;5.13;;;;;;;;;;4995815;28;20430;-23
2023/09/13 08:16:00;;;;;;;14.40;5.82;;;;;;;;;;4995957;28;20050;-22
2023/09/13 08:18:26;;;;;;;7.07;4.97;;;;;;;;;;4995628;28;20022;-21
2023/09/13 08:20:52;;;;;;;15.55;5.40;;;;;;;;;;4995615;28;20026;-21
2023/09/13 08:23:18;;;;;;;14.80;5.28;;;;;;;;;;4979301;28;20089;-23
2023/09/13 08:25:45;;;;;;;6.47;4.18;;;;;;;;;;4995562;28;20031;-22
2023/09/13 08:28:11;;;;;;;6.47;4.40;;;;;;;;;;4995500;28;20026;-24
2023/09/13 08:30:37;;;;;;;6.45;3.72;;;;;;;;;;4995673;28;20081;-22
2023/09/13 08:33:05;;;;;;;5.93;3.85;;;;;;;;;;4995329;28;20030;-23
2023/09/13 08:35:31;;;;;;;7.97;5.15;;;;;;;;;;4995394;28;20022;-21
2023/09/13 08:37:57;;;;;;;10.98;5.03;;;;;;;;;;4995887;28;20085;-25
2023/09/13 08:40:24;;;;;;;8.88;4.22;;;;;;;;;;4978255;28;20085;-24
2023/09/13 08:42:52;;;;;;;6.13;4.38;;;;;;;;;;4978147;28;20109;-22
2023/09/13 08:45:18;;;;;;;4.93;4.43;;;;;;;;;;4995628;28;20105;-20
2023/09/13 08:47:44;;;;;;;8.00;4.43;;;;;;;;;;4995531;28;20165;-24
2023/09/13 08:50:11;;;;;;;7.25;4.32;;;;;;;;;;4995311;28;20041;-23
2023/09/13 08:52:38;;;;;;;5.43;3.80;;;;;;;;;;4995032;28;20041;-23
2023/09/13 08:55:06;;;;;;;4.03;3.55;;;;;;;;;;4995232;28;20101;-21
2023/09/13 08:57:34;;;;;;;5.43;4.13;;;;;;;;;;4995201;28;20093;-25
2023/09/13 09:00:00;;;;;;;5.43;4.93;;;;;;;;;;4978014;28;20030;-27
2023/09/13 09:02:28;;;;;;;4.35;4.05;;;;;;;;;;4994502;28;20026;-24
2023/09/13 09:04:54;;;;;;;5.40;4.30;;;;;;;;;;4995384;28;20383;-22
2023/09/13 09:07:21;;;;;;;5.95;4.18;;;;;;;;;;4995158;28;20377;-21
2023/09/13 09:09:48;;;;;;;6.97;4.47;;;;;;;;;;4995322;28;20161;-25
2023/09/13 09:12:18;;;;;;;6.15;4.38;;;;;;;;;;4994935;28;20361;-20
2023/09/13 09:14:46;;;;;;;12.40;4.55;;;;;;;;;;4995088;28;20031;-22
2023/09/13 09:17:14;;;;;;;12.13;4.78;;;;;;;;;;4977858;28;20501;-20
2023/09/13 09:19:40;;;;;;;7.32;4.85;;;;;;;;;;4995001;28;20058;-24
2023/09/13 09:22:08;;;;;;;16.67;4.97;;;;;;;;;;4994937;28;20097;-22
2023/09/13 09:24:34;;;;;;;13.02;4.65;;;;;;;;;;4994939;28;20030;-22
2023/09/13 09:27:00;;;;;;;7.43;3.55;;;;;;;;;;4994920;28;20027;-22
2023/09/13 09:29:47;;;;;;;11.55;4.13;;;;;;;;;;4995125;28;20060;-21
2023/09/13 09:32:13;;;;;;;6.75;3.67;;;;;;;;;;4994737;28;20038;-22
2023/09/13 09:34:42;;;;;;;7.05;4.35;;;;;;;;;;4995025;28;20019;-23
2023/09/13 09:37:09;;;;;;;4.03;3.45;;;;;;;;;;4994770;28;20053;-22
2023/09/13 09:39:40;;;;;;;5.95;3.92;;;;;;;;;;4994567;28;20019;-21
2023/09/13 09:42:06;;;;;;;4.40;4.00;;;;;;;;;;4994591;28;20063;-22
2023/09/13 09:44:32;;;;;;;4.95;4.47;;;;;;;;;;4994544;28;20026;-25
2023/09/13 09:46:59;;;;;;;4.05;3.75;;;;;;;;;;4977331;28;20476;-22
2023/09/13 09:49:25;;;;;;;6.72;3.45;;;;;;;;;;4994572;28;20026;-24
2023/09/13 09:51:52;;;;;;;5.72;3.45;;;;;;;;;;4994657;28;20026;-22
2023/09/13 09:54:18;;;;;;;4.75;3.88;;;;;;;;;;4994603;28;20046;-19
2023/09/13 09:56:44;;;;;;;6.47;4.00;;;;;;;;;;4994648;28;20035;-19
2023/09/13 09:59:10;;;;;;;9.07;3.53;;;;;;;;;;4994627;28;20085;-21
2023/09/13 10:01:40;;;;;;;3.78;3.45;;;;;;;;;;4994544;28;20030;-20
2023/09/13 10:04:10;;;;;;;4.38;4.00;;;;;;;;;;4994262;28;20125;-26
2023/09/13 10:06:36;;;;;;;3.60;3.25;;;;;;;;;;4994483;28;20030;-23
2023/09/13 10:09:07;;;;;;;7.13;3.58;;;;;;;;;;4994803;28;20361;-25
2023/09/13 10:11:34;;;;;;;5.47;4.05;;;;;;;;;;4995145;28;20126;-19
2023/09/13 10:14:00;;;;;;;16.63;4.30;;;;;;;;;;4995732;28;20022;-23
2023/09/13 10:16:29;;;;;;;6.10;3.97;;;;;;;;;;4998006;28;20045;-21
2023/09/13 10:18:56;;;;;;;4.28;3.88;;;;;;;;;;4997745;28;20022;-22
2023/09/13 10:21:26;;;;;;;7.57;3.53;;;;;;;;;;4997753;28;20104;-19
2023/09/13 10:24:07;;;;;;;10.18;4.68;;;;;;;;;;4997864;28;20030;-20
2023/09/13 10:26:34;;;;;;;9.80;4.03;;;;;;;;;;4997870;28;20034;-21
2023/09/13 10:29:19;;;;;;;9.18;3.67;;;;;;;;;;4997661;28;20033;-22
2023/09/13 10:31:47;;;;;;;14.32;4.00;;;;;;;;;;4980762;28;20370;-23
2023/09/13 10:34:28;;;;;;;6.45;3.28;;;;;;;;;;4997734;28;20109;-22
2023/09/13 10:37:24;;;;;;;15.68;4.43;;;;;;;;;;4997914;28;20500;-27
2023/09/13 10:40:09;;;;;;;8.82;3.60;;;;;;;;;;4997595;28;20105;-24
2023/09/13 10:42:38;;;;;;;13.80;4.75;;;;;;;;;;4997583;28;20105;-21
2023/09/13 10:45:04;;;;;;;14.55;3.67;;;;;;;;;;4997664;28;20053;-22
2023/09/13 10:47:30;;;;;;;18.08;3.53;;;;;;;;;;4997422;28;20362;-20
2023/09/13 10:49:57;;;;;;;9.82;3.75;;;;;;;;;;4997527;28;20029;-20
2023/09/13 10:52:23;;;;;;;9.32;4.15;;;;;;;;;;4997163;28;20351;-21
2023/09/13 10:54:50;;;;;;;10.45;4.30;;;;;;;;;;4979969;28;20133;-20
2023/09/13 10:57:16;;;;;;;8.52;3.75;;;;;;;;;;4979848;28;20057;-23
2023/09/13 10:59:44;;;;;;;5.63;3.10;;;;;;;;;;4997131;28;20023;-19
2023/09/13 11:02:10;;;;;;;4.55;3.33;;;;;;;;;;4997065;28;20390;-20
2023/09/13 11:04:36;;;;;;;17.05;4.85;;;;;;;;;;4996902;28;20042;-22
2023/09/13 11:07:04;;;;;;;6.55;3.90;;;;;;;;;;4997085;28;20062;-25
2023/09/13 11:09:31;;;;;;;10.63;3.95;;;;;;;;;;4996858;28;20027;-20
2023/09/13 11:11:58;;;;;;;5.43;3.67;;;;;;;;;;4996690;28;20450;-21
2023/09/13 11:14:25;;;;;;;4.72;3.05;;;;;;;;;;4996859;28;20052;-22
2023/09/13 11:16:51;;;;;;;10.60;3.40;;;;;;;;;;4996978;28;20134;-21
2023/09/13 11:19:17;;;;;;;8.77;2.97;;;;;;;;;;4979857;28;20022;-27
2023/09/13 11:21:46;;;;;;;9.18;3.47;;;;;;;;;;4996445;28;20081;-22
2023/09/13 11:24:13;;;;;;;12.50;3.72;;;;;;;;;;4996469;28;20489;-21
2023/09/13 11:26:44;;;;;;;5.88;3.25;;;;;;;;;;4996658;28;20030;-23
2023/09/13 11:29:10;;;;;;;;;;;;;;;;;;4997258;28;20022;-26
2023/09/13 11:31:56;;;;;;;4.85;3.67;;;;;;;;;;4996404;28;19996;-24
2023/09/13 11:34:22;;;;;;;3.80;3.55;;;;;;;;;;4996587;28;20018;-21
2023/09/13 11:36:55;;;;;;;7.03;3.22;;;;;;;;;;4979092;28;20027;-21
2023/09/13 11:39:21;;;;;;;8.27;3.17;;;;;;;;;;4996563;28;20022;-24
2023/09/13 11:41:48;;;;;;;7.28;3.03;;;;;;;;;;4996153;28;20106;-21
2023/09/13 11:44:14;;;;;;;9.68;3.78;;;;;;;;;;4996322;28;20365;-24
2023/09/13 11:46:40;;;;;;;5.13;3.28;;;;;;;;;;4996094;28;20034;-22
2023/09/13 11:49:07;;;;;;;5.45;3.30;;;;;;;;;;4996228;28;20072;-27
2023/09/13 11:51:33;;;;;;;6.65;3.83;;;;;;;;;;4978885;28;20038;-25
2023/09/13 11:54:12;;;;;;;8.45;3.80;;;;;;;;;;4996223;28;20172;-19
2023/09/13 11:56:39;;;;;;;8.52;3.90;;;;;;;;;;4978907;28;20026;-23
2023/09/13 11:59:06;;;;;;;6.47;3.13;;;;;;;;;;4995813;28;20026;-25
2023/09/13 12:01:32;;;;;;;6.03;3.08;;;;;;;;;;4995767;28;20450;-25
2023/09/13 12:04:02;;;;;;;6.80;3.63;;;;;;;;;;4995462;28;20390;-21
2023/09/13 12:06:28;;;;;;;9.88;4.50;;;;;;;;;;4996110;28;20411;-22
2023/09/13 12:08:55;;;;;;;4.40;3.60;;;;;;;;;;4996046;28;20041;-24
2023/09/13 12:11:22;;;;;;;11.95;3.90;;;;;;;;;;4996142;28;20054;-24
2023/09/13 12:13:49;;;;;;;8.68;3.83;;;;;;;;;;4996097;28;20492;-21
2023/09/13 12:16:17;;;;;;;9.13;4.32;;;;;;;;;;4995832;28;20018;-24
2023/09/13 12:18:43;;;;;;;4.60;4.25;;;;;;;;;;4995733;28;20022;-24
2023/09/13 12:21:11;;;;;;;5.25;3.72;;;;;;;;;;4995959;28;20369;-20
2023/09/13 12:23:38;;;;;;;6.53;3.75;;;;;;;;;;4995567;28;20037;-23
2023/09/13 12:26:06;;;;;;;4.32;3.38;;;;;;;;;;4995801;28;20026;-24
2023/09/13 12:28:36;;;;;;;5.18;3.13;;;;;;;;;;4995559;28;20030;-22
2023/09/13 12:31:09;;;;;;;5.65;3.05;;;;;;;;;;4995621;28;20327;-22
2023/09/13 12:33:35;;;;;;;3.60;3.00;;;;;;;;;;4978184;28;20469;-25
2023/09/13 12:36:02;;;;;;;6.20;3.45;;;;;;;;;;4994865;28;20030;-22
2023/09/13 12:38:48;;;;;;;5.65;3.08;;;;;;;;;;4995329;28;20053;-23
2023/09/13 12:41:19;;;;;;;4.97;4.18;;;;;;;;;;4995674;28;20101;-22
2023/09/13 12:43:46;;;;;;;3.58;3.25;;;;;;;;;;4995547;28;20401;-20
2023/09/13 12:46:14;;;;;;;3.83;3.53;;;;;;;;;;4995362;28;20026;-21
2023/09/13 12:48:40;;;;;;;4.30;3.35;;;;;;;;;;4995545;28;20072;-25
2023/09/13 12:51:07;;;;;;;4.35;3.03;;;;;;;;;;4995185;28;20030;-21
2023/09/13 12:53:33;;;;;;;7.63;3.70;;;;;;;;;;4995160;28;20022;-24
2023/09/13 12:55:59;;;;;;;6.38;3.40;;;;;;;;;;4995167;28;20030;-24
2023/09/13 12:58:26;;;;;;;5.30;3.63;;;;;;;;;;4995509;28;20039;-23
2023/09/13 13:00:53;;;;;;;3.65;3.20;;;;;;;;;;4995124;28;20365;-25
2023/09/13 13:03:21;;;;;;;7.90;3.42;;;;;;;;;;4994938;28;20434;-24
2023/09/13 13:05:47;;;;;;;5.20;4.03;;;;;;;;;;4994940;28;20084;-23
2023/09/13 13:08:14;;;;;;;5.38;3.63;;;;;;;;;;4979015;28;20104;-22
2023/09/13 13:10:56;;;;;;;4.78;2.85;;;;;;;;;;4977987;28;20032;-23
2023/09/13 13:13:35;;;;;;;4.57;3.30;;;;;;;;;;4995264;28;20065;-20
2023/09/13 13:16:03;;;;;;;10.18;3.30;;;;;;;;;;4977882;28;20461;-25
2023/09/13 13:18:30;;;;;;;6.25;3.45;;;;;;;;;;4977861;28;20050;-22
2023/09/13 13:20:56;;;;;;;3.25;2.75;;;;;;;;;;4977787;28;20018;-24
2023/09/13 13:23:23;;;;;;;5.57;3.45;;;;;;;;;;4994897;28;20085;-20
2023/09/13 13:25:50;;;;;;;5.00;3.17;;;;;;;;;;4977659;28;20426;-23
2023/09/13 13:28:17;;;;;;;5.82;2.95;;;;;;;;;;4994996;28;20092;-21
2023/09/13 13:30:43;;;;;;;11.32;3.85;;;;;;;;;;4994882;28;20030;-21
2023/09/13 13:33:09;;;;;;;4.40;3.10;;;;;;;;;;4994994;28;20022;-25
2023/09/13 13:35:37;;;;;;;8.80;3.50;;;;;;;;;;4995116;28;20033;-22
2023/09/13 13:38:03;;;;;;;4.40;3.45;;;;;;;;;;4977658;28;20054;-19
2023/09/13 13:40:31;;;;;;;3.58;3.25;;;;;;;;;;4995017;28;20023;-20
2023/09/13 13:42:57;;;;;;;6.88;3.70;;;;;;;;;;4994679;28;20034;-21
2023/09/13 13:45:24;;;;;;;3.00;2.78;;;;;;;;;;4994810;28;20034;-22
2023/09/13 13:47:50;;;;;;;6.88;3.30;;;;;;;;;;4979379;28;20034;-22
2023/09/13 13:50:17;;;;;;;8.45;3.92;;;;;;;;;;4998620;28;20380;-18
2023/09/13 13:52:43;;;;;;;9.13;3.70;;;;;;;;;;4981266;28;20458;-23
2023/09/13 13:55:09;;;;;;;3.60;3.00;;;;;;;;;;4999191;28;20031;-23
2023/09/13 13:57:40;;;;;;;4.18;3.20;;;;;;;;;;4998529;28;20027;-24
2023/09/13 14:00:07;;;;;;;4.60;2.92;;;;;;;;;;4998433;28;20420;-22
2023/09/13 14:02:36;;;;;;;6.93;4.25;;;;;;;;;;4998057;28;20113;-26
2023/09/13 14:05:04;;;;;;;5.45;3.38;;;;;;;;;;4998548;28;20056;-22
2023/09/13 14:07:30;;;;;;;7.72;3.95;;;;;;;;;;4998500;28;20018;-21
2023/09/13 14:09:56;;;;;;;4.82;3.35;;;;;;;;;;4998287;28;20084;-24
2023/09/13 14:12:22;;;;;;;3.58;3.20;;;;;;;;;;4998062;28;20369;-23
2023/09/13 14:14:48;;;;;;;3.80;3.15;;;;;;;;;;4998356;28;20027;-23
2023/09/13 14:17:14;;;;;;;5.30;3.42;;;;;;;;;;4998093;28;20019;-21
2023/09/13 14:19:40;;;;;;;5.40;3.38;;;;;;;;;;4980832;28;20372;-24
2023/09/13 14:22:08;;;;;;;8.63;3.00;;;;;;;;;;4980793;28;20030;-26
2023/09/13 14:24:34;;;;;;;5.32;3.38;;;;;;;;;;4997947;28;20022;-21
2023/09/13 14:27:00;;;;;;;5.22;3.05;;;;;;;;;;4998189;28;20036;-19
2023/09/13 14:29:26;;;;;;;4.30;3.90;;;;;;;;;;4980712;28;20057;-20
2023/09/13 14:31:56;;;;;;;5.90;3.15;;;;;;;;;;4997927;28;20353;-22
2023/09/13 14:34:23;;;;;;;6.18;3.45;;;;;;;;;;4998081;28;20098;-27
2023/09/13 14:36:49;;;;;;;3.95;3.30;;;;;;;;;;4997990;28;20030;-24
2023/09/13 14:39:15;;;;;;;3.20;2.90;;;;;;;;;;4997738;28;20457;-25
2023/09/13 14:41:43;;;;;;;11.63;3.58;;;;;;;;;;4997920;28;20030;-23